sensor_id;sensor_type;location;lat;lon;timestamp;temperature;humidity
14877;DHT22;22152;48.158;17.118;2022-12-29T00:00:39;3.50;76.10
14877;DHT22;22152;48.158;17.118;2022-12-29T00:03:32;3.50;75.70
14877;DHT22;22152;48.158;17.118;2022-12-29T00:06:04;3.50;76.40
14877;DHT22;22152;48.158;17.118;2022-12-29T00:08:57;3.40;75.60
14877;DHT22;22152;48.158;17.118;2022-12-29T00:11:29;3.40;75.70
14877;DHT22;22152;48.158;17.118;2022-12-29T00:14:22;3.50;75.70
14877;DHT22;22152;48.158;17.118;2022-12-29T00:17:33;3.40;76.10
14877;DHT22;22152;48.158;17.118;2022-12-29T00:20:05;3.40;76.10
14877;DHT22;22152;48.158;17.118;2022-12-29T00:23:17;3.40;75.90
14877;DHT22;22152;48.158;17.118;2022-12-29T00:26:13;3.40;75.80
14877;DHT22;22152;48.158;17.118;2022-12-29T00:29:26;3.30;75.80
14877;DHT22;22152;48.158;17.118;2022-12-29T00:32:18;3.30;75.80
14877;DHT22;22152;48.158;17.118;2022-12-29T00:35:33;3.30;76.00
14877;DHT22;22152;48.158;17.118;2022-12-29T00:38:12;3.30;76.50
14877;DHT22;22152;48.158;17.118;2022-12-29T00:41:24;3.30;75.70
14877;DHT22;22152;48.158;17.118;2022-12-29T00:44:22;3.20;76.20
14877;DHT22;22152;48.158;17.118;2022-12-29T00:47:08;3.20;76.20
14877;DHT22;22152;48.158;17.118;2022-12-29T00:49:47;3.30;76.60
14877;DHT22;22152;48.158;17.118;2022-12-29T00:52:33;3.30;77.30
14877;DHT22;22152;48.158;17.118;2022-12-29T00:55:12;3.30;77.60
14877;DHT22;22152;48.158;17.118;2022-12-29T00:57:58;3.30;76.80
14877;DHT22;22152;48.158;17.118;2022-12-29T01:00:37;3.30;76.90
14877;DHT22;22152;48.158;17.118;2022-12-29T01:03:23;3.30;76.70
14877;DHT22;22152;48.158;17.118;2022-12-29T01:06:04;3.20;76.80
14877;DHT22;22152;48.158;17.118;2022-12-29T01:08:52;3.20;76.70
14877;DHT22;22152;48.158;17.118;2022-12-29T01:11:50;3.10;77.30
14877;DHT22;22152;48.158;17.118;2022-12-29T01:14:37;3.10;77.50
14877;DHT22;22152;48.158;17.118;2022-12-29T01:17:32;3.00;77.80
14877;DHT22;22152;48.158;17.118;2022-12-29T01:20:04;3.00;78.20
14877;DHT22;22152;48.158;17.118;2022-12-29T01:22:58;3.00;78.40
14877;DHT22;22152;48.158;17.118;2022-12-29T01:25:30;3.00;78.60
14877;DHT22;22152;48.158;17.118;2022-12-29T01:28:23;3.00;78.50
14877;DHT22;22152;48.158;17.118;2022-12-29T01:30:55;3.00;78.50
14877;DHT22;22152;48.158;17.118;2022-12-29T01:33:48;3.00;78.50
14877;DHT22;22152;48.158;17.118;2022-12-29T01:36:20;2.90;78.50
14877;DHT22;22152;48.158;17.118;2022-12-29T01:39:13;2.90;78.70
14877;DHT22;22152;48.158;17.118;2022-12-29T01:41:45;3.00;78.80
14877;DHT22;22152;48.158;17.118;2022-12-29T01:44:51;3.00;78.30
14877;DHT22;22152;48.158;17.118;2022-12-29T01:47:37;3.00;77.90
14877;DHT22;22152;48.158;17.118;2022-12-29T01:50:34;3.00;77.70
14877;DHT22;22152;48.158;17.118;2022-12-29T01:53:15;3.00;77.80
14877;DHT22;22152;48.158;17.118;2022-12-29T01:56:12;2.90;77.80
14877;DHT22;22152;48.158;17.118;2022-12-29T01:58:49;2.80;78.10
14877;DHT22;22152;48.158;17.118;2022-12-29T02:01:49;2.80;78.40
14877;DHT22;22152;48.158;17.118;2022-12-29T02:04:23;2.80;79.10
14877;DHT22;22152;48.158;17.118;2022-12-29T02:07:19;2.80;79.10
14877;DHT22;22152;48.158;17.118;2022-12-29T02:09:53;2.80;79.30
14877;DHT22;22152;48.158;17.118;2022-12-29T02:12:48;2.80;79.60
14877;DHT22;22152;48.158;17.118;2022-12-29T02:16:12;2.80;80.00
14877;DHT22;22152;48.158;17.118;2022-12-29T02:19:21;2.80;80.90
14877;DHT22;22152;48.158;17.118;2022-12-29T02:22:22;2.80;80.20
14877;DHT22;22152;48.158;17.118;2022-12-29T02:32:13;2.80;80.30
14877;DHT22;22152;48.158;17.118;2022-12-29T02:35:23;2.80;80.50
14877;DHT22;22152;48.158;17.118;2022-12-29T02:38:36;2.80;80.70
14877;DHT22;22152;48.158;17.118;2022-12-29T02:41:30;2.80;81.10
14877;DHT22;22152;48.158;17.118;2022-12-29T02:51:12;2.90;81.80
14877;DHT22;22152;48.158;17.118;2022-12-29T02:53:55;2.90;81.00
14877;DHT22;22152;48.158;17.118;2022-12-29T02:56:59;2.90;81.00
14877;DHT22;22152;48.158;17.118;2022-12-29T02:59:39;2.90;81.20
14877;DHT22;22152;48.158;17.118;2022-12-29T03:02:31;2.90;81.30
14877;DHT22;22152;48.158;17.118;2022-12-29T03:09:02;2.90;81.20
14877;DHT22;22152;48.158;17.118;2022-12-29T03:12:29;2.90;81.30
14877;DHT22;22152;48.158;17.118;2022-12-29T03:15:48;3.00;81.50
14877;DHT22;22152;48.158;17.118;2022-12-29T03:19:22;2.90;81.30
14877;DHT22;22152;48.158;17.118;2022-12-29T03:22:04;3.00;81.50
14877;DHT22;22152;48.158;17.118;2022-12-29T03:25:25;2.90;81.60
14877;DHT22;22152;48.158;17.118;2022-12-29T03:28:09;2.90;81.60
14877;DHT22;22152;48.158;17.118;2022-12-29T03:31:06;3.00;81.70
14877;DHT22;22152;48.158;17.118;2022-12-29T03:33:41;3.00;81.30
14877;DHT22;22152;48.158;17.118;2022-12-29T03:36:58;3.00;81.40
14877;DHT22;22152;48.158;17.118;2022-12-29T03:39:35;3.00;81.40
14877;DHT22;22152;48.158;17.118;2022-12-29T03:42:31;3.00;81.70
14877;DHT22;22152;48.158;17.118;2022-12-29T03:45:07;3.10;81.80
14877;DHT22;22152;48.158;17.118;2022-12-29T03:48:00;3.10;81.70
14877;DHT22;22152;48.158;17.118;2022-12-29T03:50:47;3.10;81.50
14877;DHT22;22152;48.158;17.118;2022-12-29T03:53:39;3.10;81.60
14877;DHT22;22152;48.158;17.118;2022-12-29T03:56:12;3.10;81.90
14877;DHT22;22152;48.158;17.118;2022-12-29T03:59:05;3.10;81.80
14877;DHT22;22152;48.158;17.118;2022-12-29T04:01:39;3.10;81.70
14877;DHT22;22152;48.158;17.118;2022-12-29T04:04:32;3.10;81.70
14877;DHT22;22152;48.158;17.118;2022-12-29T04:07:06;3.20;81.70
14877;DHT22;22152;48.158;17.118;2022-12-29T04:10:04;3.20;81.60
14877;DHT22;22152;48.158;17.118;2022-12-29T04:12:37;3.20;81.70
14877;DHT22;22152;48.158;17.118;2022-12-29T04:15:31;3.20;81.40
14877;DHT22;22152;48.158;17.118;2022-12-29T04:18:24;3.20;81.20
14877;DHT22;22152;48.158;17.118;2022-12-29T04:20:57;3.10;81.20
14877;DHT22;22152;48.158;17.118;2022-12-29T04:23:52;3.10;81.30
14877;DHT22;22152;48.158;17.118;2022-12-29T04:26:25;3.10;81.60
14877;DHT22;22152;48.158;17.118;2022-12-29T04:29:36;3.10;81.60
14877;DHT22;22152;48.158;17.118;2022-12-29T04:32:24;3.10;82.50
14877;DHT22;22152;48.158;17.118;2022-12-29T04:35:18;3.00;81.80
14877;DHT22;22152;48.158;17.118;2022-12-29T04:37:51;3.10;81.80
14877;DHT22;22152;48.158;17.118;2022-12-29T04:40:45;3.00;81.70
14877;DHT22;22152;48.158;17.118;2022-12-29T04:43:21;3.00;81.90
14877;DHT22;22152;48.158;17.118;2022-12-29T04:46:28;3.00;81.80
14877;DHT22;22152;48.158;17.118;2022-12-29T04:49:13;3.00;81.70
14877;DHT22;22152;48.158;17.118;2022-12-29T04:52:05;3.00;82.00
14877;DHT22;22152;48.158;17.118;2022-12-29T04:54:46;3.00;81.80
14877;DHT22;22152;48.158;17.118;2022-12-29T04:57:32;2.90;82.10
14877;DHT22;22152;48.158;17.118;2022-12-29T05:00:12;3.00;82.10
14877;DHT22;22152;48.158;17.118;2022-12-29T05:02:59;2.90;82.10
14877;DHT22;22152;48.158;17.118;2022-12-29T05:05:37;2.90;82.30
14877;DHT22;22152;48.158;17.118;2022-12-29T05:08:24;2.80;82.30
14877;DHT22;22152;48.158;17.118;2022-12-29T05:11:04;2.80;82.30
14877;DHT22;22152;48.158;17.118;2022-12-29T05:13:51;2.80;82.50
14877;DHT22;22152;48.158;17.118;2022-12-29T05:16:37;2.80;82.60
14877;DHT22;22152;48.158;17.118;2022-12-29T05:19:30;2.80;82.50
14877;DHT22;22152;48.158;17.118;2022-12-29T05:22:03;2.80;82.50
14877;DHT22;22152;48.158;17.118;2022-12-29T05:24:56;2.80;82.50
14877;DHT22;22152;48.158;17.118;2022-12-29T05:27:29;2.80;82.90
14877;DHT22;22152;48.158;17.118;2022-12-29T05:30:30;2.80;82.80
14877;DHT22;22152;48.158;17.118;2022-12-29T05:33:10;2.80;83.00
14877;DHT22;22152;48.158;17.118;2022-12-29T05:36:06;2.90;82.90
14877;DHT22;22152;48.158;17.118;2022-12-29T05:38:44;2.90;82.60
14877;DHT22;22152;48.158;17.118;2022-12-29T05:41:37;2.90;82.90
14877;DHT22;22152;48.158;17.118;2022-12-29T05:44:13;2.90;82.90
14877;DHT22;22152;48.158;17.118;2022-12-29T05:47:37;2.90;82.80
14877;DHT22;22152;48.158;17.118;2022-12-29T05:50:34;2.90;82.80
14877;DHT22;22152;48.158;17.118;2022-12-29T05:53:21;2.90;82.70
14877;DHT22;22152;48.158;17.118;2022-12-29T05:56:02;2.90;82.80
14877;DHT22;22152;48.158;17.118;2022-12-29T05:58:48;3.00;82.90
14877;DHT22;22152;48.158;17.118;2022-12-29T06:01:27;3.00;83.00
14877;DHT22;22152;48.158;17.118;2022-12-29T06:04:13;3.00;82.80
14877;DHT22;22152;48.158;17.118;2022-12-29T06:06:53;3.10;82.50
14877;DHT22;22152;48.158;17.118;2022-12-29T06:09:45;3.10;82.70
14877;DHT22;22152;48.158;17.118;2022-12-29T06:12:24;3.20;82.70
14877;DHT22;22152;48.158;17.118;2022-12-29T06:15:10;3.20;82.30
14877;DHT22;22152;48.158;17.118;2022-12-29T06:18:03;3.20;82.40
14877;DHT22;22152;48.158;17.118;2022-12-29T06:20:36;3.20;82.20
14877;DHT22;22152;48.158;17.118;2022-12-29T06:23:31;3.20;82.20
14877;DHT22;22152;48.158;17.118;2022-12-29T06:26:04;3.30;82.30
14877;DHT22;22152;48.158;17.118;2022-12-29T06:28:57;3.30;82.30
14877;DHT22;22152;48.158;17.118;2022-12-29T06:31:29;3.40;82.10
14877;DHT22;22152;48.158;17.118;2022-12-29T06:34:22;3.50;82.00
14877;DHT22;22152;48.158;17.118;2022-12-29T06:36:56;3.50;81.50
14877;DHT22;22152;48.158;17.118;2022-12-29T06:39:48;3.50;81.60
14877;DHT22;22152;48.158;17.118;2022-12-29T06:42:24;3.50;81.60
14877;DHT22;22152;48.158;17.118;2022-12-29T06:45:43;3.60;81.50
14877;DHT22;22152;48.158;17.118;2022-12-29T06:48:16;3.70;81.40
14877;DHT22;22152;48.158;17.118;2022-12-29T06:51:08;3.70;81.20
14877;DHT22;22152;48.158;17.118;2022-12-29T06:53:41;3.70;81.10
14877;DHT22;22152;48.158;17.118;2022-12-29T06:56:33;3.80;80.80
14877;DHT22;22152;48.158;17.118;2022-12-29T06:59:06;3.80;81.00
14877;DHT22;22152;48.158;17.118;2022-12-29T07:01:59;3.90;80.60
14877;DHT22;22152;48.158;17.118;2022-12-29T07:04:33;4.00;80.70
14877;DHT22;22152;48.158;17.118;2022-12-29T07:07:26;4.00;80.10
14877;DHT22;22152;48.158;17.118;2022-12-29T07:09:58;4.20;80.10
14877;DHT22;22152;48.158;17.118;2022-12-29T07:12:51;4.30;79.50
14877;DHT22;22152;48.158;17.118;2022-12-29T07:15:23;4.20;79.00
14877;DHT22;22152;48.158;17.118;2022-12-29T07:18:16;4.30;79.10
14877;DHT22;22152;48.158;17.118;2022-12-29T07:20:48;4.20;78.90
14877;DHT22;22152;48.158;17.118;2022-12-29T07:23:41;4.30;79.00
14877;DHT22;22152;48.158;17.118;2022-12-29T07:26:14;4.40;79.20
14877;DHT22;22152;48.158;17.118;2022-12-29T07:29:07;4.50;78.70
14877;DHT22;22152;48.158;17.118;2022-12-29T07:31:39;4.60;78.60
14877;DHT22;22152;48.158;17.118;2022-12-29T07:34:32;4.70;78.00
14877;DHT22;22152;48.158;17.118;2022-12-29T07:37:05;4.70;77.80
14877;DHT22;22152;48.158;17.118;2022-12-29T07:40:00;4.70;77.30
14877;DHT22;22152;48.158;17.118;2022-12-29T07:42:32;4.70;77.30
14877;DHT22;22152;48.158;17.118;2022-12-29T07:45:27;4.80;77.20
14877;DHT22;22152;48.158;17.118;2022-12-29T07:48:07;4.80;77.20
14877;DHT22;22152;48.158;17.118;2022-12-29T07:51:00;4.70;76.80
14877;DHT22;22152;48.158;17.118;2022-12-29T07:53:39;4.80;76.90
14877;DHT22;22152;48.158;17.118;2022-12-29T07:56:25;4.80;76.50
14877;DHT22;22152;48.158;17.118;2022-12-29T07:59:05;4.80;76.30
14877;DHT22;22152;48.158;17.118;2022-12-29T08:01:51;4.80;76.40
14877;DHT22;22152;48.158;17.118;2022-12-29T08:04:30;4.80;77.30
14877;DHT22;22152;48.158;17.118;2022-12-29T08:07:16;4.80;76.70
14877;DHT22;22152;48.158;17.118;2022-12-29T08:09:55;4.90;76.40
14877;DHT22;22152;48.158;17.118;2022-12-29T08:12:42;5.00;76.40
14877;DHT22;22152;48.158;17.118;2022-12-29T08:15:28;5.10;76.10
14877;DHT22;22152;48.158;17.118;2022-12-29T08:18:21;5.20;75.80
14877;DHT22;22152;48.158;17.118;2022-12-29T08:20:53;5.20;75.20
14877;DHT22;22152;48.158;17.118;2022-12-29T08:23:47;5.20;75.40
14877;DHT22;22152;48.158;17.118;2022-12-29T08:26:19;5.20;75.00
14877;DHT22;22152;48.158;17.118;2022-12-29T08:29:12;5.30;74.90
14877;DHT22;22152;48.158;17.118;2022-12-29T08:31:44;5.40;74.80
14877;DHT22;22152;48.158;17.118;2022-12-29T08:34:37;5.50;74.20
14877;DHT22;22152;48.158;17.118;2022-12-29T08:37:09;5.50;73.80
14877;DHT22;22152;48.158;17.118;2022-12-29T08:40:02;5.60;74.00
14877;DHT22;22152;48.158;17.118;2022-12-29T08:42:35;5.60;73.40
14877;DHT22;22152;48.158;17.118;2022-12-29T08:45:28;5.70;73.80
14877;DHT22;22152;48.158;17.118;2022-12-29T08:48:00;5.70;72.70
14877;DHT22;22152;48.158;17.118;2022-12-29T08:50:53;5.70;72.80
14877;DHT22;22152;48.158;17.118;2022-12-29T08:53:28;5.80;72.80
14877;DHT22;22152;48.158;17.118;2022-12-29T08:56:21;5.90;73.00
14877;DHT22;22152;48.158;17.118;2022-12-29T08:58:58;6.20;72.50
14877;DHT22;22152;48.158;17.118;2022-12-29T09:01:52;6.30;71.80
14877;DHT22;22152;48.158;17.118;2022-12-29T09:04:24;6.30;71.00
14877;DHT22;22152;48.158;17.118;2022-12-29T09:07:17;6.30;70.80
14877;DHT22;22152;48.158;17.118;2022-12-29T09:09:49;6.30;70.90
14877;DHT22;22152;48.158;17.118;2022-12-29T09:12:42;6.40;70.60
14877;DHT22;22152;48.158;17.118;2022-12-29T09:15:14;6.40;70.20
14877;DHT22;22152;48.158;17.118;2022-12-29T09:18:09;6.40;69.60
14877;DHT22;22152;48.158;17.118;2022-12-29T09:20:41;6.30;69.90
14877;DHT22;22152;48.158;17.118;2022-12-29T09:23:34;6.20;69.70
14877;DHT22;22152;48.158;17.118;2022-12-29T09:26:07;6.10;70.30
14877;DHT22;22152;48.158;17.118;2022-12-29T09:29:00;6.00;70.10
14877;DHT22;22152;48.158;17.118;2022-12-29T09:31:32;6.00;70.40
14877;DHT22;22152;48.158;17.118;2022-12-29T09:34:25;6.00;71.10
14877;DHT22;22152;48.158;17.118;2022-12-29T09:36:57;6.00;70.90
14877;DHT22;22152;48.158;17.118;2022-12-29T09:39:50;6.00;70.60
14877;DHT22;22152;48.158;17.118;2022-12-29T09:42:41;6.00;70.30
14877;DHT22;22152;48.158;17.118;2022-12-29T09:45:46;5.80;70.20
14877;DHT22;22152;48.158;17.118;2022-12-29T09:48:25;5.70;71.30
14877;DHT22;22152;48.158;17.118;2022-12-29T09:51:23;5.50;71.40
14877;DHT22;22152;48.158;17.118;2022-12-29T09:54:00;5.50;72.40
14877;DHT22;22152;48.158;17.118;2022-12-29T09:57:20;5.50;72.30
14877;DHT22;22152;48.158;17.118;2022-12-29T09:59:59;5.40;72.20
14877;DHT22;22152;48.158;17.118;2022-12-29T10:02:59;5.40;72.80
14877;DHT22;22152;48.158;17.118;2022-12-29T10:05:57;5.40;72.80
14877;DHT22;22152;48.158;17.118;2022-12-29T10:11:53;5.30;73.40
14877;DHT22;22152;48.158;17.118;2022-12-29T10:15:04;5.30;73.40
14877;DHT22;22152;48.158;17.118;2022-12-29T10:24:54;5.20;74.60
14877;DHT22;22152;48.158;17.118;2022-12-29T10:27:31;5.20;75.10
14877;DHT22;22152;48.158;17.118;2022-12-29T10:30:26;5.30;74.50
14877;DHT22;22152;48.158;17.118;2022-12-29T10:33:07;5.40;74.30
14877;DHT22;22152;48.158;17.118;2022-12-29T10:36:30;5.50;74.20
14877;DHT22;22152;48.158;17.118;2022-12-29T10:39:14;5.70;73.80
14877;DHT22;22152;48.158;17.118;2022-12-29T10:42:11;5.80;73.20
14877;DHT22;22152;48.158;17.118;2022-12-29T10:44:47;5.70;73.00
14877;DHT22;22152;48.158;17.118;2022-12-29T10:47:53;5.70;73.20
14877;DHT22;22152;48.158;17.118;2022-12-29T10:50:37;5.60;73.40
14877;DHT22;22152;48.158;17.118;2022-12-29T10:53:45;5.70;73.60
14877;DHT22;22152;48.158;17.118;2022-12-29T10:56:38;5.60;73.70
14877;DHT22;22152;48.158;17.118;2022-12-29T10:59:36;5.60;73.80
14877;DHT22;22152;48.158;17.118;2022-12-29T11:05:13;5.70;74.60
14877;DHT22;22152;48.158;17.118;2022-12-29T11:07:52;5.80;73.80
14877;DHT22;22152;48.158;17.118;2022-12-29T11:10:58;5.80;73.30
14877;DHT22;22152;48.158;17.118;2022-12-29T11:13:54;5.70;73.70
14877;DHT22;22152;48.158;17.118;2022-12-29T11:16:57;5.70;73.60
14877;DHT22;22152;48.158;17.118;2022-12-29T11:19:52;5.70;73.90
14877;DHT22;22152;48.158;17.118;2022-12-29T11:22:27;5.80;73.80
14877;DHT22;22152;48.158;17.118;2022-12-29T11:25:22;5.90;74.10
14877;DHT22;22152;48.158;17.118;2022-12-29T11:28:00;6.00;73.50
14877;DHT22;22152;48.158;17.118;2022-12-29T11:31:17;6.00;73.30
14877;DHT22;22152;48.158;17.118;2022-12-29T11:33:50;5.90;73.40
14877;DHT22;22152;48.158;17.118;2022-12-29T11:36:43;5.90;73.30
14877;DHT22;22152;48.158;17.118;2022-12-29T11:39:33;5.90;73.70
14877;DHT22;22152;48.158;17.118;2022-12-29T11:42:41;6.00;73.60
14877;DHT22;22152;48.158;17.118;2022-12-29T11:45:26;6.00;73.90
14877;DHT22;22152;48.158;17.118;2022-12-29T11:48:21;5.90;73.80
14877;DHT22;22152;48.158;17.118;2022-12-29T11:50:55;5.90;74.00
14877;DHT22;22152;48.158;17.118;2022-12-29T11:53:53;6.00;74.40
14877;DHT22;22152;48.158;17.118;2022-12-29T11:56:39;6.00;73.90
14877;DHT22;22152;48.158;17.118;2022-12-29T11:59:36;6.00;74.20
14877;DHT22;22152;48.158;17.118;2022-12-29T12:02:19;6.10;74.10
14877;DHT22;22152;48.158;17.118;2022-12-29T12:05:55;6.20;74.00
14877;DHT22;22152;48.158;17.118;2022-12-29T12:08:53;6.30;73.90
14877;DHT22;22152;48.158;17.118;2022-12-29T12:11:51;6.40;73.20
14877;DHT22;22152;48.158;17.118;2022-12-29T12:14:46;6.30;73.30
14877;DHT22;22152;48.158;17.118;2022-12-29T12:18:30;6.50;73.50
14877;DHT22;22152;48.158;17.118;2022-12-29T12:21:38;6.50;73.20
14877;DHT22;22152;48.158;17.118;2022-12-29T12:27:32;6.40;72.60
14877;DHT22;22152;48.158;17.118;2022-12-29T12:33:24;6.20;73.10
14877;DHT22;22152;48.158;17.118;2022-12-29T12:39:27;6.10;73.90
14877;DHT22;22152;48.158;17.118;2022-12-29T12:55:49;6.10;74.30
14877;DHT22;22152;48.158;17.118;2022-12-29T13:02:37;6.10;74.20
14877;DHT22;22152;48.158;17.118;2022-12-29T13:08:49;6.20;74.50
14877;DHT22;22152;48.158;17.118;2022-12-29T13:11:55;6.20;74.10
14877;DHT22;22152;48.158;17.118;2022-12-29T13:15:18;6.20;74.40
14877;DHT22;22152;48.158;17.118;2022-12-29T13:18:27;6.20;74.50
14877;DHT22;22152;48.158;17.118;2022-12-29T13:21:37;6.20;74.90
14877;DHT22;22152;48.158;17.118;2022-12-29T13:24:47;6.20;74.50
14877;DHT22;22152;48.158;17.118;2022-12-29T13:31:14;6.40;75.00
14877;DHT22;22152;48.158;17.118;2022-12-29T13:34:33;6.40;74.70
14877;DHT22;22152;48.158;17.118;2022-12-29T13:37:18;6.50;74.80
14877;DHT22;22152;48.158;17.118;2022-12-29T13:40:17;6.50;75.90
14877;DHT22;22152;48.158;17.118;2022-12-29T13:42:52;6.50;75.30
14877;DHT22;22152;48.158;17.118;2022-12-29T13:45:50;6.60;75.70
14877;DHT22;22152;48.158;17.118;2022-12-29T13:48:52;6.50;75.20
14877;DHT22;22152;48.158;17.118;2022-12-29T13:51:57;6.50;75.60
14877;DHT22;22152;48.158;17.118;2022-12-29T13:54:52;6.50;75.70
14877;DHT22;22152;48.158;17.118;2022-12-29T13:58:26;6.50;75.80
14877;DHT22;22152;48.158;17.118;2022-12-29T14:04:26;6.50;76.10
14877;DHT22;22152;48.158;17.118;2022-12-29T14:07:11;6.50;76.00
14877;DHT22;22152;48.158;17.118;2022-12-29T14:10:06;6.50;76.10
14877;DHT22;22152;48.158;17.118;2022-12-29T14:13:11;6.40;75.90
14877;DHT22;22152;48.158;17.118;2022-12-29T14:16:05;6.20;76.00
14877;DHT22;22152;48.158;17.118;2022-12-29T14:19:32;6.20;76.40
14877;DHT22;22152;48.158;17.118;2022-12-29T14:22:05;6.00;76.50
14877;DHT22;22152;48.158;17.118;2022-12-29T14:24:58;5.70;77.80
14877;DHT22;22152;48.158;17.118;2022-12-29T14:27:44;5.70;78.30
14877;DHT22;22152;48.158;17.118;2022-12-29T14:30:47;5.60;78.60
14877;DHT22;22152;48.158;17.118;2022-12-29T14:33:24;5.60;78.90
14877;DHT22;22152;48.158;17.118;2022-12-29T14:36:21;5.50;79.10
14877;DHT22;22152;48.158;17.118;2022-12-29T14:38:57;5.50;79.40
14877;DHT22;22152;48.158;17.118;2022-12-29T14:42:06;5.50;79.50
14877;DHT22;22152;48.158;17.118;2022-12-29T14:44:49;5.40;80.40
14877;DHT22;22152;48.158;17.118;2022-12-29T14:47:49;5.40;80.70
14877;DHT22;22152;48.158;17.118;2022-12-29T14:50:41;5.40;81.30
14877;DHT22;22152;48.158;17.118;2022-12-29T14:53:43;5.30;82.00
14877;DHT22;22152;48.158;17.118;2022-12-29T14:56:19;5.30;82.80
14877;DHT22;22152;48.158;17.118;2022-12-29T14:59:18;5.30;82.70
14877;DHT22;22152;48.158;17.118;2022-12-29T15:01:53;5.40;82.50
14877;DHT22;22152;48.158;17.118;2022-12-29T15:04:47;5.40;82.20
14877;DHT22;22152;48.158;17.118;2022-12-29T15:07:20;5.30;82.50
14877;DHT22;22152;48.158;17.118;2022-12-29T15:10:15;5.20;82.80
14877;DHT22;22152;48.158;17.118;2022-12-29T15:12:52;5.10;83.30
14877;DHT22;22152;48.158;17.118;2022-12-29T15:15:48;5.10;83.40
14877;DHT22;22152;48.158;17.118;2022-12-29T15:18:34;5.10;84.10
14877;DHT22;22152;48.158;17.118;2022-12-29T15:21:32;5.10;84.60
14877;DHT22;22152;48.158;17.118;2022-12-29T15:24:09;5.00;84.30
14877;DHT22;22152;48.158;17.118;2022-12-29T15:27:04;5.00;84.80
14877;DHT22;22152;48.158;17.118;2022-12-29T15:29:40;5.00;84.80
14877;DHT22;22152;48.158;17.118;2022-12-29T15:32:43;5.00;84.80
14877;DHT22;22152;48.158;17.118;2022-12-29T15:38:21;5.00;85.00
14877;DHT22;22152;48.158;17.118;2022-12-29T15:41:02;5.00;85.10
14877;DHT22;22152;48.158;17.118;2022-12-29T15:46:43;5.00;85.50
14877;DHT22;22152;48.158;17.118;2022-12-29T15:49:36;5.00;85.80
14877;DHT22;22152;48.158;17.118;2022-12-29T15:52:09;5.00;86.10
14877;DHT22;22152;48.158;17.118;2022-12-29T15:55:03;5.10;86.00
14877;DHT22;22152;48.158;17.118;2022-12-29T15:57:41;5.10;85.50
14877;DHT22;22152;48.158;17.118;2022-12-29T16:00:36;5.00;85.80
14877;DHT22;22152;48.158;17.118;2022-12-29T16:03:12;5.10;86.40
14877;DHT22;22152;48.158;17.118;2022-12-29T16:09:28;5.10;86.80
14877;DHT22;22152;48.158;17.118;2022-12-29T16:12:36;5.20;87.10
14877;DHT22;22152;48.158;17.118;2022-12-29T16:15:16;5.30;86.90
14877;DHT22;22152;48.158;17.118;2022-12-29T16:18:24;5.30;86.50
14877;DHT22;22152;48.158;17.118;2022-12-29T16:21:28;5.30;86.90
14877;DHT22;22152;48.158;17.118;2022-12-29T16:24:08;5.30;86.70
14877;DHT22;22152;48.158;17.118;2022-12-29T16:27:19;5.40;86.60
14877;DHT22;22152;48.158;17.118;2022-12-29T16:29:54;5.40;86.70
14877;DHT22;22152;48.158;17.118;2022-12-29T16:32:49;5.30;86.80
14877;DHT22;22152;48.158;17.118;2022-12-29T16:38:35;5.40;86.50
14877;DHT22;22152;48.158;17.118;2022-12-29T16:41:07;5.40;86.70
14877;DHT22;22152;48.158;17.118;2022-12-29T16:44:23;5.40;86.50
14877;DHT22;22152;48.158;17.118;2022-12-29T16:47:02;5.40;86.20
14877;DHT22;22152;48.158;17.118;2022-12-29T16:50:13;5.30;86.30
14877;DHT22;22152;48.158;17.118;2022-12-29T16:52:49;5.30;86.20
14877;DHT22;22152;48.158;17.118;2022-12-29T16:55:50;5.40;86.00
14877;DHT22;22152;48.158;17.118;2022-12-29T16:58:26;5.40;85.80
14877;DHT22;22152;48.158;17.118;2022-12-29T17:01:21;5.40;85.80
14877;DHT22;22152;48.158;17.118;2022-12-29T17:03:56;5.40;85.60
14877;DHT22;22152;48.158;17.118;2022-12-29T17:06:51;5.40;85.60
14877;DHT22;22152;48.158;17.118;2022-12-29T17:09:25;5.40;85.50
14877;DHT22;22152;48.158;17.118;2022-12-29T17:12:27;5.40;85.50
14877;DHT22;22152;48.158;17.118;2022-12-29T17:15:03;5.40;85.30
14877;DHT22;22152;48.158;17.118;2022-12-29T17:17:59;5.40;85.90
14877;DHT22;22152;48.158;17.118;2022-12-29T17:20:52;5.40;86.30
14877;DHT22;22152;48.158;17.118;2022-12-29T17:23:25;5.50;85.80
14877;DHT22;22152;48.158;17.118;2022-12-29T17:26:18;5.50;85.70
14877;DHT22;22152;48.158;17.118;2022-12-29T17:28:50;5.50;85.60
14877;DHT22;22152;48.158;17.118;2022-12-29T17:31:43;5.50;85.90
14877;DHT22;22152;48.158;17.118;2022-12-29T17:34:15;5.50;85.20
14877;DHT22;22152;48.158;17.118;2022-12-29T17:37:23;5.50;85.30
14877;DHT22;22152;48.158;17.118;2022-12-29T17:39:59;5.50;85.10
14877;DHT22;22152;48.158;17.118;2022-12-29T17:42:53;5.40;85.50
14877;DHT22;22152;48.158;17.118;2022-12-29T17:45:29;5.30;85.40
14877;DHT22;22152;48.158;17.118;2022-12-29T17:48:24;5.30;85.50
14877;DHT22;22152;48.158;17.118;2022-12-29T17:50:56;5.40;85.60
14877;DHT22;22152;48.158;17.118;2022-12-29T17:53:50;5.30;85.30
14877;DHT22;22152;48.158;17.118;2022-12-29T17:56:23;5.30;85.30
14877;DHT22;22152;48.158;17.118;2022-12-29T17:59:16;5.30;85.10
14877;DHT22;22152;48.158;17.118;2022-12-29T18:01:49;5.20;85.10
14877;DHT22;22152;48.158;17.118;2022-12-29T18:04:41;5.20;85.20
14877;DHT22;22152;48.158;17.118;2022-12-29T18:07:21;5.20;85.50
14877;DHT22;22152;48.158;17.118;2022-12-29T18:10:08;5.20;85.30
14877;DHT22;22152;48.158;17.118;2022-12-29T18:12:48;5.20;85.10
14877;DHT22;22152;48.158;17.118;2022-12-29T18:15:36;5.10;84.90
14877;DHT22;22152;48.158;17.118;2022-12-29T18:18:23;5.00;85.00
14877;DHT22;22152;48.158;17.118;2022-12-29T18:21:20;5.00;84.90
14877;DHT22;22152;48.158;17.118;2022-12-29T18:23:54;5.00;85.40
14877;DHT22;22152;48.158;17.118;2022-12-29T18:26:46;4.90;84.80
14877;DHT22;22152;48.158;17.118;2022-12-29T18:29:19;4.90;85.10
14877;DHT22;22152;48.158;17.118;2022-12-29T18:32:12;4.90;84.90
14877;DHT22;22152;48.158;17.118;2022-12-29T18:34:45;4.80;84.80
14877;DHT22;22152;48.158;17.118;2022-12-29T18:37:38;4.80;85.10
14877;DHT22;22152;48.158;17.118;2022-12-29T18:40:11;4.70;85.40
14877;DHT22;22152;48.158;17.118;2022-12-29T18:43:05;4.70;85.60
14877;DHT22;22152;48.158;17.118;2022-12-29T18:45:37;4.70;85.70
14877;DHT22;22152;48.158;17.118;2022-12-29T18:48:32;4.70;85.70
14877;DHT22;22152;48.158;17.118;2022-12-29T18:51:05;4.70;86.00
14877;DHT22;22152;48.158;17.118;2022-12-29T18:53:59;4.70;86.10
14877;DHT22;22152;48.158;17.118;2022-12-29T18:56:32;4.70;86.30
14877;DHT22;22152;48.158;17.118;2022-12-29T18:59:25;4.70;85.90
14877;DHT22;22152;48.158;17.118;2022-12-29T19:01:57;4.70;85.90
14877;DHT22;22152;48.158;17.118;2022-12-29T19:04:49;4.70;85.70
14877;DHT22;22152;48.158;17.118;2022-12-29T19:07:29;4.70;85.40